sensor_id;sensor_type;location;lat;lon;timestamp;temperature;humidity
21238;DHT22;10777;50.828;3.264;2022-10-19T00:00:59;14.20;99.90
21238;DHT22;10777;50.828;3.264;2022-10-19T00:03:25;14.20;99.90
21238;DHT22;10777;50.828;3.264;2022-10-19T00:05:50;14.10;99.90
21238;DHT22;10777;50.828;3.264;2022-10-19T00:08:16;13.90;99.90
21238;DHT22;10777;50.828;3.264;2022-10-19T00:10:41;14.00;99.90
21238;DHT22;10777;50.828;3.264;2022-10-19T00:13:07;13.90;99.90
21238;DHT22;10777;50.828;3.264;2022-10-19T00:15:36;13.90;99.90
21238;DHT22;10777;50.828;3.264;2022-10-19T00:18:02;14.00;99.90
21238;DHT22;10777;50.828;3.264;2022-10-19T00:20:27;14.10;99.90
21238;DHT22;10777;50.828;3.264;2022-10-19T00:22:53;14.20;99.90
21238;DHT22;10777;50.828;3.264;2022-10-19T00:25:18;13.90;99.90
21238;DHT22;10777;50.828;3.264;2022-10-19T00:27:44;13.60;99.90
21238;DHT22;10777;50.828;3.264;2022-10-19T00:30:09;13.70;99.90
21238;DHT22;10777;50.828;3.264;2022-10-19T00:32:35;13.90;99.90
21238;DHT22;10777;50.828;3.264;2022-10-19T00:35:01;13.90;99.90
21238;DHT22;10777;50.828;3.264;2022-10-19T00:37:28;14.00;99.90
21238;DHT22;10777;50.828;3.264;2022-10-19T00:39:54;14.00;99.90
21238;DHT22;10777;50.828;3.264;2022-10-19T00:42:19;13.90;99.90
21238;DHT22;10777;50.828;3.264;2022-10-19T00:45:02;13.90;99.90
21238;DHT22;10777;50.828;3.264;2022-10-19T00:47:28;13.80;99.90
21238;DHT22;10777;50.828;3.264;2022-10-19T00:49:55;13.70;99.90
21238;DHT22;10777;50.828;3.264;2022-10-19T00:52:24;13.60;99.90
21238;DHT22;10777;50.828;3.264;2022-10-19T00:54:52;13.90;99.90
21238;DHT22;10777;50.828;3.264;2022-10-19T00:57:18;13.70;99.90
21238;DHT22;10777;50.828;3.264;2022-10-19T00:59:45;13.80;99.90
21238;DHT22;10777;50.828;3.264;2022-10-19T01:02:11;13.80;99.90
21238;DHT22;10777;50.828;3.264;2022-10-19T01:04:41;13.90;99.90
21238;DHT22;10777;50.828;3.264;2022-10-19T01:07:08;13.80;99.90
21238;DHT22;10777;50.828;3.264;2022-10-19T01:09:34;13.90;99.90
21238;DHT22;10777;50.828;3.264;2022-10-19T01:12:10;13.60;99.90
21238;DHT22;10777;50.828;3.264;2022-10-19T01:23:59;13.40;99.90
21238;DHT22;10777;50.828;3.264;2022-10-19T01:26:45;13.40;99.90
21238;DHT22;10777;50.828;3.264;2022-10-19T01:32:26;13.60;99.90
21238;DHT22;10777;50.828;3.264;2022-10-19T01:35:05;13.60;99.90
21238;DHT22;10777;50.828;3.264;2022-10-19T01:37:44;13.60;99.90
21238;DHT22;10777;50.828;3.264;2022-10-19T01:40:17;13.40;99.90
21238;DHT22;10777;50.828;3.264;2022-10-19T01:42:49;13.30;99.90
21238;DHT22;10777;50.828;3.264;2022-10-19T01:45:24;13.50;99.90
21238;DHT22;10777;50.828;3.264;2022-10-19T01:47:58;13.70;99.90
21238;DHT22;10777;50.828;3.264;2022-10-19T01:50:34;13.80;99.90
21238;DHT22;10777;50.828;3.264;2022-10-19T01:53:02;13.80;99.90
21238;DHT22;10777;50.828;3.264;2022-10-19T01:55:29;13.60;99.90
21238;DHT22;10777;50.828;3.264;2022-10-19T01:58:02;13.50;99.90
21238;DHT22;10777;50.828;3.264;2022-10-19T02:00:30;13.50;99.90
21238;DHT22;10777;50.828;3.264;2022-10-19T02:02:57;13.60;99.90
21238;DHT22;10777;50.828;3.264;2022-10-19T02:05:29;13.30;99.90
21238;DHT22;10777;50.828;3.264;2022-10-19T02:07:58;13.20;99.90
21238;DHT22;10777;50.828;3.264;2022-10-19T02:10:25;13.10;99.90
21238;DHT22;10777;50.828;3.264;2022-10-19T02:12:53;13.10;99.90
21238;DHT22;10777;50.828;3.264;2022-10-19T02:15:21;13.00;99.90
21238;DHT22;10777;50.828;3.264;2022-10-19T02:17:50;13.10;99.90
21238;DHT22;10777;50.828;3.264;2022-10-19T02:20:17;13.00;99.90
21238;DHT22;10777;50.828;3.264;2022-10-19T02:22:44;13.10;99.90
21238;DHT22;10777;50.828;3.264;2022-10-19T02:25:10;13.00;99.90
21238;DHT22;10777;50.828;3.264;2022-10-19T02:27:38;13.20;99.90
21238;DHT22;10777;50.828;3.264;2022-10-19T02:30:08;13.40;99.90
21238;DHT22;10777;50.828;3.264;2022-10-19T02:32:34;13.20;99.90
21238;DHT22;10777;50.828;3.264;2022-10-19T02:34:59;13.10;99.90
21238;DHT22;10777;50.828;3.264;2022-10-19T02:37:25;13.00;99.90
21238;DHT22;10777;50.828;3.264;2022-10-19T02:39:51;13.00;99.90
21238;DHT22;10777;50.828;3.264;2022-10-19T02:42:21;13.10;99.90
21238;DHT22;10777;50.828;3.264;2022-10-19T02:44:57;13.00;99.90
21238;DHT22;10777;50.828;3.264;2022-10-19T02:47:27;13.00;99.90
21238;DHT22;10777;50.828;3.264;2022-10-19T02:49:54;13.20;99.90
21238;DHT22;10777;50.828;3.264;2022-10-19T02:52:20;12.90;99.90
21238;DHT22;10777;50.828;3.264;2022-10-19T02:54:47;12.90;99.90
21238;DHT22;10777;50.828;3.264;2022-10-19T02:57:16;12.90;99.90
21238;DHT22;10777;50.828;3.264;2022-10-19T02:59:42;12.70;99.90
21238;DHT22;10777;50.828;3.264;2022-10-19T03:02:08;12.80;99.90
21238;DHT22;10777;50.828;3.264;2022-10-19T03:04:33;12.80;99.90
21238;DHT22;10777;50.828;3.264;2022-10-19T03:06:59;12.70;99.90
21238;DHT22;10777;50.828;3.264;2022-10-19T03:09:25;12.60;99.90
21238;DHT22;10777;50.828;3.264;2022-10-19T03:11:51;12.80;99.90
21238;DHT22;10777;50.828;3.264;2022-10-19T03:14:16;12.90;99.90
21238;DHT22;10777;50.828;3.264;2022-10-19T03:16:42;13.00;99.90
21238;DHT22;10777;50.828;3.264;2022-10-19T03:19:08;13.00;99.90
21238;DHT22;10777;50.828;3.264;2022-10-19T03:21:34;13.00;99.90
21238;DHT22;10777;50.828;3.264;2022-10-19T03:24:00;13.00;99.90
21238;DHT22;10777;50.828;3.264;2022-10-19T03:26:26;13.30;99.90
21238;DHT22;10777;50.828;3.264;2022-10-19T03:28:51;13.50;99.90
21238;DHT22;10777;50.828;3.264;2022-10-19T03:31:17;13.80;99.90
21238;DHT22;10777;50.828;3.264;2022-10-19T03:33:43;13.60;99.90
21238;DHT22;10777;50.828;3.264;2022-10-19T03:36:31;13.40;99.90
21238;DHT22;10777;50.828;3.264;2022-10-19T03:38:59;13.40;99.90
21238;DHT22;10777;50.828;3.264;2022-10-19T03:41:27;13.40;99.90
21238;DHT22;10777;50.828;3.264;2022-10-19T03:43:52;13.60;99.90
21238;DHT22;10777;50.828;3.264;2022-10-19T03:46:18;13.70;99.90
21238;DHT22;10777;50.828;3.264;2022-10-19T03:48:45;13.80;99.90
21238;DHT22;10777;50.828;3.264;2022-10-19T03:51:13;13.70;99.90
21238;DHT22;10777;50.828;3.264;2022-10-19T03:53:40;13.60;99.90
21238;DHT22;10777;50.828;3.264;2022-10-19T03:56:10;13.40;99.90
21238;DHT22;10777;50.828;3.264;2022-10-19T03:58:39;13.70;99.90
21238;DHT22;10777;50.828;3.264;2022-10-19T04:01:08;13.80;99.90
21238;DHT22;10777;50.828;3.264;2022-10-19T04:03:34;13.80;99.90
21238;DHT22;10777;50.828;3.264;2022-10-19T04:06:04;14.10;99.90
21238;DHT22;10777;50.828;3.264;2022-10-19T04:08:30;14.20;99.90
21238;DHT22;10777;50.828;3.264;2022-10-19T04:11:02;14.00;99.90
21238;DHT22;10777;50.828;3.264;2022-10-19T04:13:29;13.80;99.90
21238;DHT22;10777;50.828;3.264;2022-10-19T04:15:54;13.70;99.90
21238;DHT22;10777;50.828;3.264;2022-10-19T04:18:20;13.50;99.90
21238;DHT22;10777;50.828;3.264;2022-10-19T04:20:45;13.60;99.90
21238;DHT22;10777;50.828;3.264;2022-10-19T04:23:11;13.60;99.90
21238;DHT22;10777;50.828;3.264;2022-10-19T04:25:37;13.50;99.90
21238;DHT22;10777;50.828;3.264;2022-10-19T04:28:02;13.60;99.90
21238;DHT22;10777;50.828;3.264;2022-10-19T04:30:28;13.70;99.90
21238;DHT22;10777;50.828;3.264;2022-10-19T04:32:53;13.60;99.90
21238;DHT22;10777;50.828;3.264;2022-10-19T04:35:19;13.40;99.90
21238;DHT22;10777;50.828;3.264;2022-10-19T04:37:45;13.60;99.90
21238;DHT22;10777;50.828;3.264;2022-10-19T04:40:11;13.30;99.90
21238;DHT22;10777;50.828;3.264;2022-10-19T04:42:36;13.40;99.90
21238;DHT22;10777;50.828;3.264;2022-10-19T04:45:02;13.40;99.90
21238;DHT22;10777;50.828;3.264;2022-10-19T04:47:29;13.50;99.90
21238;DHT22;10777;50.828;3.264;2022-10-19T04:49:55;13.30;99.90
21238;DHT22;10777;50.828;3.264;2022-10-19T04:52:20;13.40;99.90
21238;DHT22;10777;50.828;3.264;2022-10-19T04:54:46;13.50;99.90
21238;DHT22;10777;50.828;3.264;2022-10-19T04:57:12;13.40;99.90
21238;DHT22;10777;50.828;3.264;2022-10-19T04:59:37;13.30;99.90
21238;DHT22;10777;50.828;3.264;2022-10-19T05:02:03;13.10;99.90
21238;DHT22;10777;50.828;3.264;2022-10-19T05:04:29;13.10;99.90
21238;DHT22;10777;50.828;3.264;2022-10-19T05:06:54;13.00;99.90
21238;DHT22;10777;50.828;3.264;2022-10-19T05:09:20;12.80;99.90
21238;DHT22;10777;50.828;3.264;2022-10-19T05:11:48;12.80;99.90
21238;DHT22;10777;50.828;3.264;2022-10-19T05:14:14;13.10;99.90
21238;DHT22;10777;50.828;3.264;2022-10-19T05:16:40;12.90;99.90
21238;DHT22;10777;50.828;3.264;2022-10-19T05:19:06;13.00;99.90
21238;DHT22;10777;50.828;3.264;2022-10-19T05:21:31;13.00;99.90
21238;DHT22;10777;50.828;3.264;2022-10-19T05:23:57;13.00;99.90
21238;DHT22;10777;50.828;3.264;2022-10-19T05:26:25;13.00;99.90
21238;DHT22;10777;50.828;3.264;2022-10-19T05:28:54;12.80;99.90
21238;DHT22;10777;50.828;3.264;2022-10-19T05:31:21;12.80;99.90
21238;DHT22;10777;50.828;3.264;2022-10-19T05:33:47;13.10;99.90
21238;DHT22;10777;50.828;3.264;2022-10-19T05:36:17;13.10;99.90
21238;DHT22;10777;50.828;3.264;2022-10-19T05:38:45;13.20;99.90
21238;DHT22;10777;50.828;3.264;2022-10-19T05:41:11;13.20;99.90
21238;DHT22;10777;50.828;3.264;2022-10-19T05:43:38;13.20;99.90
21238;DHT22;10777;50.828;3.264;2022-10-19T05:46:06;13.20;99.90
21238;DHT22;10777;50.828;3.264;2022-10-19T05:48:33;13.10;99.90
21238;DHT22;10777;50.828;3.264;2022-10-19T05:51:00;13.00;99.90
21238;DHT22;10777;50.828;3.264;2022-10-19T05:53:27;13.10;99.90
21238;DHT22;10777;50.828;3.264;2022-10-19T05:55:53;13.30;99.90
21238;DHT22;10777;50.828;3.264;2022-10-19T05:58:19;13.50;99.90
21238;DHT22;10777;50.828;3.264;2022-10-19T06:00:51;13.50;99.90
21238;DHT22;10777;50.828;3.264;2022-10-19T06:03:16;13.40;99.90
21238;DHT22;10777;50.828;3.264;2022-10-19T06:05:42;13.20;99.90
21238;DHT22;10777;50.828;3.264;2022-10-19T06:08:08;12.90;99.90
21238;DHT22;10777;50.828;3.264;2022-10-19T06:10:33;12.60;99.90
21238;DHT22;10777;50.828;3.264;2022-10-19T06:12:59;12.70;99.90
21238;DHT22;10777;50.828;3.264;2022-10-19T06:15:25;12.80;99.90
21238;DHT22;10777;50.828;3.264;2022-10-19T06:17:50;12.60;99.90
21238;DHT22;10777;50.828;3.264;2022-10-19T06:20:16;12.60;99.90
21238;DHT22;10777;50.828;3.264;2022-10-19T06:22:41;12.40;99.90
21238;DHT22;10777;50.828;3.264;2022-10-19T06:25:07;12.30;99.90
21238;DHT22;10777;50.828;3.264;2022-10-19T06:27:33;12.20;99.90
21238;DHT22;10777;50.828;3.264;2022-10-19T06:29:58;12.30;99.90
21238;DHT22;10777;50.828;3.264;2022-10-19T06:32:24;12.50;99.90
21238;DHT22;10777;50.828;3.264;2022-10-19T06:34:50;12.40;99.90
21238;DHT22;10777;50.828;3.264;2022-10-19T06:37:15;12.30;99.90
21238;DHT22;10777;50.828;3.264;2022-10-19T06:39:41;12.40;99.90
21238;DHT22;10777;50.828;3.264;2022-10-19T06:42:06;12.30;99.90
21238;DHT22;10777;50.828;3.264;2022-10-19T06:44:33;12.50;99.90
21238;DHT22;10777;50.828;3.264;2022-10-19T06:46:59;12.60;99.90
21238;DHT22;10777;50.828;3.264;2022-10-19T06:49:25;12.70;99.90
21238;DHT22;10777;50.828;3.264;2022-10-19T06:51:50;12.80;99.90
21238;DHT22;10777;50.828;3.264;2022-10-19T06:54:16;12.80;99.90
21238;DHT22;10777;50.828;3.264;2022-10-19T06:56:41;13.00;99.90
21238;DHT22;10777;50.828;3.264;2022-10-19T06:59:07;13.10;99.90
21238;DHT22;10777;50.828;3.264;2022-10-19T07:01:32;12.90;99.90
21238;DHT22;10777;50.828;3.264;2022-10-19T07:03:58;13.00;99.90
21238;DHT22;10777;50.828;3.264;2022-10-19T07:06:25;12.80;99.90
21238;DHT22;10777;50.828;3.264;2022-10-19T07:08:52;12.90;99.90
21238;DHT22;10777;50.828;3.264;2022-10-19T07:11:19;13.20;99.90
21238;DHT22;10777;50.828;3.264;2022-10-19T07:13:47;13.20;99.90
21238;DHT22;10777;50.828;3.264;2022-10-19T07:16:14;13.40;99.90
21238;DHT22;10777;50.828;3.264;2022-10-19T07:18:41;13.50;99.90
21238;DHT22;10777;50.828;3.264;2022-10-19T07:21:09;13.50;99.90
21238;DHT22;10777;50.828;3.264;2022-10-19T07:23:36;13.70;99.90
21238;DHT22;10777;50.828;3.264;2022-10-19T07:26:04;13.80;99.90
21238;DHT22;10777;50.828;3.264;2022-10-19T07:28:30;13.60;99.90
21238;DHT22;10777;50.828;3.264;2022-10-19T07:30:56;13.60;99.90
21238;DHT22;10777;50.828;3.264;2022-10-19T07:33:22;13.50;99.90
21238;DHT22;10777;50.828;3.264;2022-10-19T07:35:47;13.50;99.90
21238;DHT22;10777;50.828;3.264;2022-10-19T07:38:13;13.60;99.90
21238;DHT22;10777;50.828;3.264;2022-10-19T07:40:39;13.80;99.90
21238;DHT22;10777;50.828;3.264;2022-10-19T07:43:04;14.00;99.90
21238;DHT22;10777;50.828;3.264;2022-10-19T07:45:31;14.00;99.90
21238;DHT22;10777;50.828;3.264;2022-10-19T07:47:58;14.00;99.90
21238;DHT22;10777;50.828;3.264;2022-10-19T07:50:24;13.80;99.90
21238;DHT22;10777;50.828;3.264;2022-10-19T07:52:51;14.00;99.90
21238;DHT22;10777;50.828;3.264;2022-10-19T07:55:17;14.30;99.90
21238;DHT22;10777;50.828;3.264;2022-10-19T07:57:46;14.20;99.90
21238;DHT22;10777;50.828;3.264;2022-10-19T08:00:13;13.60;99.90
21238;DHT22;10777;50.828;3.264;2022-10-19T08:02:39;13.60;99.90
21238;DHT22;10777;50.828;3.264;2022-10-19T08:05:04;13.40;99.90
21238;DHT22;10777;50.828;3.264;2022-10-19T08:07:32;13.30;99.90
21238;DHT22;10777;50.828;3.264;2022-10-19T08:09:58;13.40;99.90
21238;DHT22;10777;50.828;3.264;2022-10-19T08:12:24;13.70;99.90
21238;DHT22;10777;50.828;3.264;2022-10-19T08:14:50;13.80;99.90
21238;DHT22;10777;50.828;3.264;2022-10-19T08:17:15;13.80;99.90
21238;DHT22;10777;50.828;3.264;2022-10-19T08:19:42;14.10;99.90
21238;DHT22;10777;50.828;3.264;2022-10-19T08:22:09;14.20;99.90
21238;DHT22;10777;50.828;3.264;2022-10-19T08:24:34;14.30;99.90
21238;DHT22;10777;50.828;3.264;2022-10-19T08:27:00;14.50;99.90
21238;DHT22;10777;50.828;3.264;2022-10-19T08:29:27;14.60;99.90
21238;DHT22;10777;50.828;3.264;2022-10-19T08:31:53;14.60;99.90
21238;DHT22;10777;50.828;3.264;2022-10-19T08:34:18;14.70;99.90
21238;DHT22;10777;50.828;3.264;2022-10-19T08:36:46;14.60;99.90
21238;DHT22;10777;50.828;3.264;2022-10-19T08:39:12;14.80;99.90
21238;DHT22;10777;50.828;3.264;2022-10-19T08:42:03;15.00;99.90
21238;DHT22;10777;50.828;3.264;2022-10-19T08:44:46;15.00;99.90
21238;DHT22;10777;50.828;3.264;2022-10-19T08:47:33;15.00;99.90
21238;DHT22;10777;50.828;3.264;2022-10-19T08:50:04;14.70;99.90
21238;DHT22;10777;50.828;3.264;2022-10-19T08:52:40;15.00;99.90
21238;DHT22;10777;50.828;3.264;2022-10-19T08:55:14;15.10;99.90
21238;DHT22;10777;50.828;3.264;2022-10-19T08:58:04;15.20;99.90
21238;DHT22;10777;50.828;3.264;2022-10-19T09:01:03;15.20;99.90
21238;DHT22;10777;50.828;3.264;2022-10-19T09:03:40;15.00;99.90
21238;DHT22;10777;50.828;3.264;2022-10-19T09:06:33;15.10;99.90
21238;DHT22;10777;50.828;3.264;2022-10-19T09:09:02;15.40;99.90
21238;DHT22;10777;50.828;3.264;2022-10-19T09:11:31;15.60;99.90
21238;DHT22;10777;50.828;3.264;2022-10-19T09:14:09;15.70;99.90
21238;DHT22;10777;50.828;3.264;2022-10-19T09:16:37;15.40;99.90
21238;DHT22;10777;50.828;3.264;2022-10-19T09:19:24;15.50;99.90
21238;DHT22;10777;50.828;3.264;2022-10-19T09:22:04;15.30;99.90
21238;DHT22;10777;50.828;3.264;2022-10-19T09:24:51;15.70;99.90
21238;DHT22;10777;50.828;3.264;2022-10-19T09:27:29;15.90;99.90
21238;DHT22;10777;50.828;3.264;2022-10-19T09:30:02;16.00;99.90
21238;DHT22;10777;50.828;3.264;2022-10-19T09:32:32;16.00;99.90
21238;DHT22;10777;50.828;3.264;2022-10-19T09:35:03;16.00;99.90
21238;DHT22;10777;50.828;3.264;2022-10-19T09:37:31;15.80;99.90
21238;DHT22;10777;50.828;3.264;2022-10-19T09:40:01;15.90;99.90
21238;DHT22;10777;50.828;3.264;2022-10-19T09:42:29;16.20;99.90
21238;DHT22;10777;50.828;3.264;2022-10-19T09:45:00;16.30;99.90
21238;DHT22;10777;50.828;3.264;2022-10-19T09:47:34;16.20;99.90
21238;DHT22;10777;50.828;3.264;2022-10-19T09:50:21;16.60;99.90
21238;DHT22;10777;50.828;3.264;2022-10-19T09:52:48;16.70;99.90
21238;DHT22;10777;50.828;3.264;2022-10-19T09:55:24;16.60;99.90
21238;DHT22;10777;50.828;3.264;2022-10-19T09:57:58;16.30;99.90
21238;DHT22;10777;50.828;3.264;2022-10-19T10:00:32;16.30;99.90
21238;DHT22;10777;50.828;3.264;2022-10-19T10:02:58;16.10;99.90
21238;DHT22;10777;50.828;3.264;2022-10-19T10:05:40;16.10;99.90
21238;DHT22;10777;50.828;3.264;2022-10-19T10:08:16;16.30;99.90
21238;DHT22;10777;50.828;3.264;2022-10-19T10:10:45;16.50;99.90
21238;DHT22;10777;50.828;3.264;2022-10-19T10:13:20;16.30;99.90
21238;DHT22;10777;50.828;3.264;2022-10-19T10:15:53;16.30;99.90
21238;DHT22;10777;50.828;3.264;2022-10-19T10:18:20;16.30;99.90
21238;DHT22;10777;50.828;3.264;2022-10-19T10:21:13;16.50;99.90
21238;DHT22;10777;50.828;3.264;2022-10-19T10:23:39;16.90;99.90
21238;DHT22;10777;50.828;3.264;2022-10-19T10:26:15;16.90;99.90
21238;DHT22;10777;50.828;3.264;2022-10-19T10:28:49;17.10;99.90
21238;DHT22;10777;50.828;3.264;2022-10-19T10:31:21;17.20;99.90
21238;DHT22;10777;50.828;3.264;2022-10-19T10:34:03;17.30;99.90
21238;DHT22;10777;50.828;3.264;2022-10-19T10:36:30;17.40;99.90
21238;DHT22;10777;50.828;3.264;2022-10-19T10:39:15;17.40;99.90
21238;DHT22;10777;50.828;3.264;2022-10-19T10:41:42;17.40;99.90
21238;DHT22;10777;50.828;3.264;2022-10-19T10:44:20;17.50;99.90
21238;DHT22;10777;50.828;3.264;2022-10-19T10:46:57;17.50;99.90
21238;DHT22;10777;50.828;3.264;2022-10-19T10:49:27;17.50;99.90
21238;DHT22;10777;50.828;3.264;2022-10-19T10:51:59;17.20;99.90
21238;DHT22;10777;50.828;3.264;2022-10-19T10:54:28;16.90;99.90
21238;DHT22;10777;50.828;3.264;2022-10-19T10:57:02;17.30;99.90
21238;DHT22;10777;50.828;3.264;2022-10-19T10:59:34;17.30;99.90
21238;DHT22;10777;50.828;3.264;2022-10-19T11:04:53;17.60;99.90
21238;DHT22;10777;50.828;3.264;2022-10-19T11:07:23;17.70;99.90
21238;DHT22;10777;50.828;3.264;2022-10-19T11:09:55;17.90;99.90
21238;DHT22;10777;50.828;3.264;2022-10-19T11:12:36;18.00;99.90
21238;DHT22;10777;50.828;3.264;2022-10-19T11:15:22;17.80;99.90
21238;DHT22;10777;50.828;3.264;2022-10-19T11:18:13;17.80;99.90
21238;DHT22;10777;50.828;3.264;2022-10-19T11:20:48;17.60;99.90
21238;DHT22;10777;50.828;3.264;2022-10-19T11:23:35;17.50;99.90
21238;DHT22;10777;50.828;3.264;2022-10-19T11:26:17;17.40;99.90
21238;DHT22;10777;50.828;3.264;2022-10-19T11:31:45;17.60;99.90
21238;DHT22;10777;50.828;3.264;2022-10-19T11:34:36;17.70;99.90
21238;DHT22;10777;50.828;3.264;2022-10-19T11:37:23;17.80;99.90
21238;DHT22;10777;50.828;3.264;2022-10-19T11:40:12;17.90;99.90
21238;DHT22;10777;50.828;3.264;2022-10-19T11:43:01;17.90;99.90
21238;DHT22;10777;50.828;3.264;2022-10-19T11:45:41;18.20;99.90
21238;DHT22;10777;50.828;3.264;2022-10-19T11:48:24;18.50;99.90
21238;DHT22;10777;50.828;3.264;2022-10-19T11:51:08;18.80;99.90
21238;DHT22;10777;50.828;3.264;2022-10-19T11:56:43;19.60;99.90
21238;DHT22;10777;50.828;3.264;2022-10-19T11:59:27;19.20;99.90
21238;DHT22;10777;50.828;3.264;2022-10-19T12:02:26;19.70;99.90
21238;DHT22;10777;50.828;3.264;2022-10-19T12:04:59;20.70;99.90
21238;DHT22;10777;50.828;3.264;2022-10-19T12:07:45;20.50;99.90
21238;DHT22;10777;50.828;3.264;2022-10-19T12:10:19;20.20;99.90
21238;DHT22;10777;50.828;3.264;2022-10-19T12:12:52;20.50;99.90
21238;DHT22;10777;50.828;3.264;2022-10-19T12:15:23;20.80;99.90
21238;DHT22;10777;50.828;3.264;2022-10-19T12:17:52;21.80;99.90
21238;DHT22;10777;50.828;3.264;2022-10-19T12:20:26;22.50;99.90
21238;DHT22;10777;50.828;3.264;2022-10-19T12:22:53;23.10;99.90
21238;DHT22;10777;50.828;3.264;2022-10-19T12:25:20;23.40;99.90
21238;DHT22;10777;50.828;3.264;2022-10-19T12:27:47;23.10;99.90
21238;DHT22;10777;50.828;3.264;2022-10-19T12:30:18;22.40;99.90
21238;DHT22;10777;50.828;3.264;2022-10-19T12:33:07;21.80;99.90
21238;DHT22;10777;50.828;3.264;2022-10-19T12:35:55;22.20;99.90
21238;DHT22;10777;50.828;3.264;2022-10-19T12:38:33;22.10;99.90
21238;DHT22;10777;50.828;3.264;2022-10-19T12:41:09;23.00;99.90
21238;DHT22;10777;50.828;3.264;2022-10-19T12:43:51;23.20;99.90
21238;DHT22;10777;50.828;3.264;2022-10-19T12:46:31;23.20;99.90
21238;DHT22;10777;50.828;3.264;2022-10-19T12:49:35;22.10;99.90
21238;DHT22;10777;50.828;3.264;2022-10-19T12:52:04;21.80;99.90
21238;DHT22;10777;50.828;3.264;2022-10-19T12:54:34;21.30;99.90
21238;DHT22;10777;50.828;3.264;2022-10-19T12:57:02;21.20;99.90
21238;DHT22;10777;50.828;3.264;2022-10-19T12:59:31;20.60;99.90
21238;DHT22;10777;50.828;3.264;2022-10-19T13:01:58;20.40;99.90
21238;DHT22;10777;50.828;3.264;2022-10-19T13:04:29;20.20;99.90
21238;DHT22;10777;50.828;3.264;2022-10-19T13:07:02;19.90;99.90
21238;DHT22;10777;50.828;3.264;2022-10-19T13:09:45;19.70;99.90
21238;DHT22;10777;50.828;3.264;2022-10-19T13:12:28;19.70;99.90
21238;DHT22;10777;50.828;3.264;2022-10-19T13:15:05;19.60;99.90
21238;DHT22;10777;50.828;3.264;2022-10-19T13:17:40;19.70;99.90
21238;DHT22;10777;50.828;3.264;2022-10-19T13:20:47;19.60;99.90
21238;DHT22;10777;50.828;3.264;2022-10-19T13:23:36;19.30;99.90
21238;DHT22;10777;50.828;3.264;2022-10-19T13:26:22;19.30;99.90
21238;DHT22;10777;50.828;3.264;2022-10-19T13:28:52;19.40;99.90
21238;DHT22;10777;50.828;3.264;2022-10-19T13:31:29;19.30;99.90
21238;DHT22;10777;50.828;3.264;2022-10-19T13:33:55;19.20;99.90
21238;DHT22;10777;50.828;3.264;2022-10-19T13:36:21;19.30;99.90
21238;DHT22;10777;50.828;3.264;2022-10-19T13:39:04;19.10;99.90
21238;DHT22;10777;50.828;3.264;2022-10-19T13:41:45;19.00;99.90
21238;DHT22;10777;50.828;3.264;2022-10-19T13:44:19;19.30;99.90
21238;DHT22;10777;50.828;3.264;2022-10-19T13:50:02;19.70;99.90
21238;DHT22;10777;50.828;3.264;2022-10-19T13:53:02;19.80;99.90
21238;DHT22;10777;50.828;3.264;2022-10-19T13:55:48;19.60;99.90
21238;DHT22;10777;50.828;3.264;2022-10-19T14:01:31;19.60;99.90
21238;DHT22;10777;50.828;3.264;2022-10-19T14:04:20;19.50;99.90
21238;DHT22;10777;50.828;3.264;2022-10-19T14:06:53;19.60;99.90
21238;DHT22;10777;50.828;3.264;2022-10-19T14:09:46;19.50;99.90
21238;DHT22;10777;50.828;3.264;2022-10-19T14:12:20;19.50;99.90
21238;DHT22;10777;50.828;3.264;2022-10-19T14:14:48;19.70;99.90
21238;DHT22;10777;50.828;3.264;2022-10-19T14:17:19;19.70;99.90
21238;DHT22;10777;50.828;3.264;2022-10-19T14:19:51;19.60;99.90
21238;DHT22;10777;50.828;3.264;2022-10-19T14:22:30;19.50;99.90
21238;DHT22;10777;50.828;3.264;2022-10-19T14:25:04;19.40;99.90
21238;DHT22;10777;50.828;3.264;2022-10-19T14:27:31;19.40;99.90
21238;DHT22;10777;50.828;3.264;2022-10-19T14:29:57;19.50;99.90
21238;DHT22;10777;50.828;3.264;2022-10-19T14:32:26;19.60;99.90
21238;DHT22;10777;50.828;3.264;2022-10-19T14:34:52;19.50;99.90
21238;DHT22;10777;50.828;3.264;2022-10-19T14:37:22;19.60;99.90
21238;DHT22;10777;50.828;3.264;2022-10-19T14:40:07;19.70;99.90
21238;DHT22;10777;50.828;3.264;2022-10-19T14:42:48;19.80;99.90
21238;DHT22;10777;50.828;3.264;2022-10-19T14:45:26;19.80;99.90
21238;DHT22;10777;50.828;3.264;2022-10-19T14:47:59;19.80;99.90
21238;DHT22;10777;50.828;3.264;2022-10-19T14:50:32;19.30;99.90
21238;DHT22;10777;50.828;3.264;2022-10-19T14:53:19;19.60;99.90
21238;DHT22;10777;50.828;3.264;2022-10-19T14:55:47;19.60;99.90
21238;DHT22;10777;50.828;3.264;2022-10-19T14:58:16;19.60;99.90
21238;DHT22;10777;50.828;3.264;2022-10-19T15:00:45;19.70;99.90
21238;DHT22;10777;50.828;3.264;2022-10-19T15:03:20;19.60;99.90
21238;DHT22;10777;50.828;3.264;2022-10-19T15:05:48;19.70;99.90
21238;DHT22;10777;50.828;3.264;2022-10-19T15:08:28;19.80;99.90
21238;DHT22;10777;50.828;3.264;2022-10-19T15:10:54;19.60;99.90
21238;DHT22;10777;50.828;3.264;2022-10-19T15:13:24;19.60;99.90
21238;DHT22;10777;50.828;3.264;2022-10-19T15:15:51;19.70;99.90
21238;DHT22;10777;50.828;3.264;2022-10-19T15:18:18;19.50;99.90
21238;DHT22;10777;50.828;3.264;2022-10-19T15:20:44;19.50;99.90
21238;DHT22;10777;50.828;3.264;2022-10-19T15:23:31;19.40;99.90
21238;DHT22;10777;50.828;3.264;2022-10-19T15:25:59;19.40;99.90
21238;DHT22;10777;50.828;3.264;2022-10-19T15:28:35;19.40;99.90
21238;DHT22;10777;50.828;3.264;2022-10-19T15:31:12;19.40;99.90
21238;DHT22;10777;50.828;3.264;2022-10-19T15:33:41;19.40;99.90
21238;DHT22;10777;50.828;3.264;2022-10-19T15:36:10;19.40;99.90
21238;DHT22;10777;50.828;3.264;2022-10-19T15:38:43;19.30;99.90
21238;DHT22;10777;50.828;3.264;2022-10-19T15:41:17;19.30;99.90
21238;DHT22;10777;50.828;3.264;2022-10-19T15:43:46;19.30;99.90
21238;DHT22;10777;50.828;3.264;2022-10-19T15:46:21;19.20;99.90
21238;DHT22;10777;50.828;3.264;2022-10-19T15:48:49;19.20;99.90
21238;DHT22;10777;50.828;3.264;2022-10-19T15:51:34;19.00;99.90
21238;DHT22;10777;50.828;3.264;2022-10-19T15:54:02;19.00;99.90
21238;DHT22;10777;50.828;3.264;2022-10-19T15:56:29;19.00;99.90
21238;DHT22;10777;50.828;3.264;2022-10-19T15:58:57;19.00;99.90
21238;DHT22;10777;50.828;3.264;2022-10-19T16:01:25;18.90;99.90
21238;DHT22;10777;50.828;3.264;2022-10-19T16:03:52;19.00;99.90
21238;DHT22;10777;50.828;3.264;2022-10-19T16:06:20;18.90;99.90
21238;DHT22;10777;50.828;3.264;2022-10-19T16:08:46;18.80;99.90
21238;DHT22;10777;50.828;3.264;2022-10-19T16:11:15;18.90;99.90
21238;DHT22;10777;50.828;3.264;2022-10-19T16:13:41;18.90;99.90
21238;DHT22;10777;50.828;3.264;2022-10-19T16:16:09;18.90;99.90
21238;DHT22;10777;50.828;3.264;2022-10-19T16:18:35;18.70;99.90
21238;DHT22;10777;50.828;3.264;2022-10-19T16:21:01;18.60;99.90